• Join FlightAware (Why Join?)
  • Login
  • US Flag 
09:12AM EDT


 

Airport Tracker/Info


-or-


 

Live Flight TrackerFlight Track Log ✈ FLG4067 ✈ 03-May-2013 ✈ KOKC - KMSP

Flight Track Log - Related Links

Times and Time Zones

All times are in EDT time to prevent confusion due to time zone crossing. See the FLG4067 flight status page for this flight to view local times or setup timezone preferences in your user account.

Time Position Orientation Groundspeed Altitude Reporting Facility
EDT Latitude Longitude Course Direction KTS MPH feet Rate Location/Type
08:20AM 35.4039 -97.5919 20° North 162 186 1,800  Level Fort Worth Center
08:20AM 35.4164 -97.5894 North 157 181 2,700 2,280 Climbing Fort Worth Center
08:22AM 35.5244 -97.5519 16° North 212 244 7,100 2,340 Climbing Kansas City Center
08:23AM 35.7788 -97.5833 North  Level FlightAware Approximate
08:23AM 35.5867 -97.5272 18° North 231 266 9,900  Level Kansas City Center
08:24AM 35.8904 -97.5562 20° North  Level FlightAware Approximate
08:24AM 35.6617 -97.4956 19° North 279 321 11,200  Level Kansas City Center
08:25AM 35.9992 -97.5078 20° North  Level FlightAware Approximate
08:25AM 35.7428 -97.4614 19° North 303 349 13,200  Level Kansas City Center
08:26AM 35.8306 -97.4247 19° North 324 373 14,600 1,500 Climbing Kansas City Center
08:27AM 35.9228 -97.3869 18° North 342 394 16,300 1,500 Climbing Kansas City Center
08:28AM 36.0178 -97.3469 19° North 355 409 17,700 1,560 Climbing Kansas City Center
08:29AM 36.1125 -97.3081 18° North 358 412 19,500 1,620 Climbing Kansas City Center
08:30AM 36.2061 -97.2667 20° North 358 412 21,000 1,380 Climbing Kansas City Center
08:31AM 36.3011 -97.2261 19° North 361 415 22,400 1,260 Climbing Kansas City Center
08:32AM 36.4175 -97.1783 18° North 365 420 23,600 1,020 Climbing Kansas City Center
08:33AM 36.5175 -97.1364 19° North 374 430 24,600 960 Climbing Kansas City Center
08:34AM 36.6181 -97.0942 19° North 380 437 25,600 840 Climbing Kansas City Center
08:35AM 36.7158 -97.0517 19° North 384 442 26,400 600 Climbing Kansas City Center
08:36AM 36.8217 -97.0056 19° North 395 455 26,900 240 Climbing Kansas City Center
08:37AM 36.9311 -96.9608 18° North 408 470 27,000  Climbing Kansas City Center
08:38AM 37.0461 -96.9100 19° North 426 490 27,000  Level Kansas City Center
08:39AM 37.1633 -96.8603 19° North 437 503 27,000  Level Kansas City Center
08:40AM 37.2836 -96.8081 19° North 450 518 27,000  Level Kansas City Center
08:41AM 37.4303 -96.7447 19° North 461 531 27,000  Level Kansas City Center
08:42AM 37.5542 -96.6894 19° North 469 540 27,000  Level Kansas City Center
08:43AM 37.6839 -96.6328 19° North 486 559 27,000  Level Kansas City Center
08:45AM 37.8114 -96.5778 19° North 486 559 27,000  Level Kansas City Center
08:46AM 37.9367 -96.5211 20° North 480 552 27,000  Level Kansas City Center
08:47AM 38.0592 -96.4669 19° North 469 540 27,000  Level Kansas City Center
08:48AM 38.1983 -96.4050 19° North 465 535 27,000  Level Kansas City Center
08:49AM 38.3050 -96.3569 19° North 462 532 27,000  Level Kansas City Center
08:50AM 38.4392 -96.2964 19° North 458 527 27,000  Level Kansas City Center
08:51AM 38.5556 -96.2447 19° North 459 528 27,000  Level Kansas City Center
08:52AM 38.6914 -96.1839 19° North 461 531 27,000  Level Kansas City Center
08:53AM 38.8067 -96.1297 20° North 461 531 27,000  Level Kansas City Center
08:54AM 38.9264 -96.0775 19° North 469 540 27,000  Level Kansas City Center
08:55AM 39.0661 -96.0119 20° North 475 547 27,000  Level Kansas City Center
08:56AM 39.1872 -95.9567 19° North 478 550 27,000  Level Kansas City Center
08:57AM 39.3081 -95.9000 20° North 479 551 27,000  Level Kansas City Center
08:58AM 39.4494 -95.8356 19° North 480 552 27,000  Level Kansas City Center
08:59AM 39.5717 -95.7775 20° North 484 557 27,000 -480 Level Kansas City Center
09:00AM 39.6928 -95.7217 20° North 481 554 26,100 -1,020 Descending Kansas City Center
09:01AM 39.8356 -95.6542 20° North 485 558 25,000 -540 Descending Kansas City Center
09:02AM 39.9550 -95.5975 20° North 478 550 25,000  Level Kansas City Center
09:03AM 40.0719 -95.5428 20° North 467 537 25,000  Level Kansas City Center
09:04AM 40.2114 -95.4769 20° North 473 544 25,000  Level Kansas City Center
09:05AM 40.3297 -95.4219 20° North 472 543 25,000  Level Kansas City Center
09:06AM 40.4692 -95.3542 20° North 476 548 25,000  Level Kansas City Center
09:07AM 40.5883 -95.2967 20° North 476 548 25,000  Level Kansas City Center
09:08AM 40.7422 -95.2231 20° North 475 547 25,000  Level Minneapolis Center
09:09AM 40.8656 -95.1639 20° North 475 547 25,000  Level Minneapolis Center
09:10AM 40.9900 -95.1044 20° North 477 549 25,000  Level Minneapolis Center
09:11AM 41.1144 -95.0442 20° North 477 549 25,000  Level Minneapolis Center
09:12AM 41.2392 -94.9831 20° North 479 551 25,000  Level Minneapolis Center
09:13AM 41.3631 -94.9233 20° North 478 550 25,000 -600 Level Minneapolis Center
09:14AM 41.4881 -94.8589 21° North 480 552 23,800 -1,020 Descending Minneapolis Center
09:15AM 41.6133 -94.7981 20° North 481 554 23,000 -420 Descending Minneapolis Center
09:16AM 41.7586 -94.7281 20° North 468 539 23,000  Level Minneapolis Center
09:17AM 41.8753 -94.6681 21° North 454 522 23,000  Level Minneapolis Center
09:18AM 41.9958 -94.6078 20° North 460 529 23,000  Level Minneapolis Center
09:19AM 42.1208 -94.5458 20° North 475 547 23,000  Level Minneapolis Center
09:20AM 42.2450 -94.4822 21° North 479 551 23,000  Level Minneapolis Center
09:21AM 42.3686 -94.4192 21° North 476 548 23,000  Level Minneapolis Center
09:22AM 42.4983 -94.3528 21° North 468 539 23,000  Level Minneapolis Center
09:24AM 42.6172 -94.2864 22° Northeast 465 535 23,000  Level Minneapolis Center
09:25AM 42.7161 -94.1806 38° Northeast 455 524 23,000  Level Minneapolis Center
09:26AM 42.8081 -94.0769 40° Northeast 436 502 23,000  Level Minneapolis Center
09:27AM 42.9028 -93.9742 38° Northeast 436 502 23,000  Level Minneapolis Center
09:28AM 43.0161 -93.8500 39° Northeast 438 504 23,000  Level Minneapolis Center
09:29AM 43.1353 -93.8014 17° North 451 519 23,000  Level Minneapolis Center
09:30AM 43.2600 -93.7647 12° North 458 527 23,000  Level Minneapolis Center
09:31AM 43.3842 -93.7281 12° North 459 528 23,000  Level Minneapolis Center
09:32AM 43.5081 -93.6889 13° North 459 528 23,000 -540 Level Minneapolis Center
09:33AM 43.6461 -93.6453 13° North 460 529 21,900 -1,740 Descending Minneapolis Center
09:34AM 43.7717 -93.6078 12° North 463 533 19,500 -2,220 Descending Minneapolis Center
09:35AM 43.8886 -93.5722 12° North 445 512 17,400 -2,220 Descending Minneapolis Center
09:36AM 44.0006 -93.5361 13° North 416 479 15,000 -2,160 Descending Minneapolis Center
09:37AM 44.1061 -93.5019 13° North 393 452 13,100 -1,920 Descending Minneapolis Center
09:38AM 44.2092 -93.4694 13° North 380 437 11,100 -1,080 Descending Minneapolis Center
09:39AM 44.3006 -93.4147 23° Northeast 360 414 11,000 -480 Descending Minneapolis Center
09:40AM 44.4011 -93.3444 27° Northeast 334 384 10,200 -1,080 Descending Minneapolis Center
09:41AM 44.4611 -93.2806 37° Northeast 277 319 8,900 -1,200 Descending Minneapolis Center
09:42AM 44.5189 -93.2172 38° Northeast 266 306 7,800 -900 Descending Minneapolis Center
09:43AM 44.5689 -93.1594 39° Northeast 239 275 7,100 -1,020 Descending Minneapolis Center
09:44AM 44.6194 -93.1028 39° Northeast 236 272 5,800 -1,260 Descending Minneapolis Center
09:45AM 44.6714 -93.0453 38° Northeast 241 277 4,600 -900 Descending Minneapolis Center
09:46AM 44.7400 -93.0278 10° North 228 262 4,000 -720 Descending Minneapolis Center
09:47AM 44.7892 -93.0394 350° North 186 214 3,200 -840 Descending Minneapolis Center